createdAt,value
2019-04-03T00:00:34.544Z,57.70
2019-04-03T00:03:02.722Z,57.70
2019-04-03T00:05:29.801Z,57.80
2019-04-03T00:07:56.100Z,57.70
2019-04-03T00:10:22.551Z,58.30
2019-04-03T00:12:48.936Z,57.70
2019-04-03T00:15:15.244Z,57.70
2019-04-03T00:17:41.563Z,57.70
2019-04-03T00:20:08.178Z,57.80
2019-04-03T00:22:36.115Z,57.60
2019-04-03T00:25:03.025Z,57.60
2019-04-03T00:27:29.329Z,57.60
2019-04-03T00:29:55.769Z,57.80
2019-04-03T00:32:23.356Z,57.80
2019-04-03T00:34:50.002Z,57.90
2019-04-03T00:37:16.314Z,57.70
2019-04-03T00:39:42.619Z,58.00
2019-04-03T00:42:08.921Z,58.20
2019-04-03T00:44:35.386Z,58.20
2019-04-03T00:47:01.660Z,58.20
2019-04-03T00:49:28.340Z,58.60
2019-04-03T00:51:57.116Z,58.10
2019-04-03T00:54:23.356Z,58.00
2019-04-03T00:56:50.970Z,58.40
2019-04-03T00:59:17.271Z,58.20
2019-04-03T01:01:43.769Z,58.20
2019-04-03T01:04:10.192Z,58.40
2019-04-03T01:06:36.789Z,58.20
2019-04-03T01:09:05.500Z,58.20
2019-04-03T01:11:32.224Z,58.20
2019-04-03T01:14:01.089Z,58.10
2019-04-03T01:16:27.271Z,58.30
2019-04-03T01:18:53.794Z,58.30
2019-04-03T01:21:20.619Z,58.50
2019-04-03T01:23:47.067Z,58.60
2019-04-03T01:26:13.695Z,58.60
2019-04-03T01:28:41.789Z,58.60
2019-04-03T01:31:08.340Z,58.60
2019-04-03T01:33:34.687Z,58.60
2019-04-03T01:36:01.165Z,58.60
2019-04-03T01:38:27.588Z,58.50
2019-04-03T01:40:53.913Z,58.40
2019-04-03T01:43:21.487Z,58.50
2019-04-03T01:45:48.455Z,58.50
2019-04-03T01:48:14.859Z,58.40
2019-04-03T01:50:41.157Z,58.50
2019-04-03T01:53:07.631Z,58.60
2019-04-03T01:55:35.006Z,58.40
2019-04-03T01:58:01.737Z,58.40
2019-04-03T02:00:28.307Z,58.30
2019-04-03T02:02:54.701Z,58.50
2019-04-03T02:05:21.030Z,58.50
2019-04-03T02:07:47.435Z,58.40
2019-04-03T02:10:17.654Z,58.60
2019-04-03T02:12:44.025Z,58.70
2019-04-03T02:15:10.734Z,58.30
2019-04-03T02:17:37.127Z,58.20
2019-04-03T02:20:03.535Z,58.20
2019-04-03T02:22:30.110Z,58.10
2019-04-03T02:24:56.663Z,58.10
2019-04-03T02:27:23.094Z,58.10
2019-04-03T02:29:49.628Z,58.10
2019-04-03T02:32:16.121Z,57.90
2019-04-03T02:34:42.656Z,57.90
2019-04-03T02:37:09.042Z,58.20
2019-04-03T02:39:35.330Z,58.00
2019-04-03T02:42:02.177Z,58.60
2019-04-03T02:44:28.674Z,58.00
2019-04-03T02:46:55.357Z,58.10
2019-04-03T02:49:23.225Z,58.00
2019-04-03T02:51:51.881Z,57.90
2019-04-03T02:54:26.409Z,58.10
2019-04-03T02:56:53.555Z,58.20
2019-04-03T02:59:20.000Z,58.10
2019-04-03T03:01:46.408Z,58.10
2019-04-03T03:04:12.822Z,58.00
2019-04-03T03:06:39.131Z,57.90
2019-04-03T03:09:05.792Z,57.90
2019-04-03T03:11:32.063Z,58.00
2019-04-03T03:13:58.876Z,57.90
2019-04-03T03:16:25.957Z,57.90
2019-04-03T03:18:52.796Z,58.00
2019-04-03T03:21:19.449Z,58.10
2019-04-03T03:23:45.993Z,58.10
2019-04-03T03:26:12.284Z,58.20
2019-04-03T03:28:38.804Z,57.90
2019-04-03T03:31:07.157Z,58.70
2019-04-03T03:33:37.322Z,58.10
2019-04-03T03:36:02.392Z,58.00
2019-04-03T03:38:29.260Z,58.10
2019-04-03T03:40:55.679Z,58.00
2019-04-03T03:43:21.989Z,58.00
2019-04-03T03:45:51.442Z,58.10
2019-04-03T03:48:16.571Z,58.10
2019-04-03T03:50:42.881Z,58.20
2019-04-03T03:53:11.822Z,58.00
2019-04-03T03:55:37.584Z,58.10
2019-04-03T03:58:04.463Z,58.30
2019-04-03T04:00:31.077Z,57.90
2019-04-03T04:02:57.564Z,58.00
2019-04-03T04:05:23.921Z,58.10
2019-04-03T04:07:50.841Z,58.00
2019-04-03T04:10:17.658Z,58.10
2019-04-03T04:12:44.372Z,57.80
2019-04-03T04:15:10.881Z,58.00
2019-04-03T04:17:37.414Z,57.80
2019-04-03T04:20:06.234Z,57.80
2019-04-03T04:22:33.068Z,57.90
2019-04-03T04:25:01.968Z,57.80
2019-04-03T04:27:28.587Z,57.80
2019-04-03T04:29:54.904Z,57.80
2019-04-03T04:32:21.437Z,57.90
2019-04-03T04:34:49.874Z,57.90
2019-04-03T04:37:15.896Z,57.90
2019-04-03T04:39:42.465Z,58.10
2019-04-03T04:42:08.777Z,58.00
2019-04-03T04:44:35.081Z,58.00
2019-04-03T04:47:01.544Z,58.00
2019-04-03T04:49:27.863Z,57.80
2019-04-03T04:51:56.562Z,57.80
2019-04-03T04:54:22.473Z,57.80
2019-04-03T04:56:48.885Z,58.00
2019-04-03T04:59:15.207Z,57.90
2019-04-03T05:01:41.961Z,57.90
2019-04-03T05:04:08.357Z,57.80
2019-04-03T05:06:34.843Z,57.80
2019-04-03T05:09:03.233Z,57.90
2019-04-03T05:11:29.306Z,57.80
2019-04-03T05:13:55.598Z,57.90
2019-04-03T05:16:24.433Z,57.90
2019-04-03T05:18:50.379Z,57.90
2019-04-03T05:21:17.165Z,57.90
2019-04-03T05:23:43.838Z,57.80
2019-04-03T05:26:10.432Z,57.90
2019-04-03T05:28:36.744Z,57.80
2019-04-03T05:31:03.079Z,57.80
2019-04-03T05:33:29.753Z,57.80
2019-04-03T05:35:56.092Z,57.80
2019-04-03T05:38:25.311Z,57.70
2019-04-03T05:40:52.108Z,57.80
2019-04-03T05:43:18.542Z,57.70
2019-04-03T05:45:44.846Z,57.70
2019-04-03T05:48:13.349Z,57.60
2019-04-03T05:50:39.394Z,57.60
2019-04-03T05:53:06.473Z,57.60
2019-04-03T05:55:33.711Z,57.60
2019-04-03T05:58:00.127Z,57.60
2019-04-03T06:00:27.082Z,57.50
2019-04-03T06:02:53.790Z,57.50
2019-04-03T06:05:21.707Z,57.50
2019-04-03T06:07:49.654Z,57.50
2019-04-03T06:10:16.340Z,57.50
2019-04-03T06:12:44.752Z,57.40
2019-04-03T06:15:10.872Z,57.50
2019-04-03T06:17:37.185Z,57.50
2019-04-03T06:20:06.432Z,57.50
2019-04-03T06:22:33.465Z,57.80
2019-04-03T06:25:00.084Z,58.10
2019-04-03T06:27:40.689Z,57.90
2019-04-03T06:30:06.241Z,57.40
2019-04-03T06:32:36.488Z,57.20
2019-04-03T06:35:10.034Z,57.00
2019-04-03T06:37:36.997Z,59.80
2019-04-03T06:40:09.371Z,60.40
2019-04-03T06:42:36.057Z,60.20
2019-04-03T06:45:05.867Z,60.40
2019-04-03T06:47:33.392Z,60.10
2019-04-03T06:50:05.537Z,60.80
2019-04-03T06:52:31.996Z,60.00
2019-04-03T06:54:58.494Z,60.10
2019-04-03T06:57:25.063Z,59.90
2019-04-03T06:59:51.330Z,59.80
2019-04-03T07:02:18.172Z,59.80
2019-04-03T07:04:44.762Z,59.70
2019-04-03T07:07:11.189Z,59.60
2019-04-03T07:09:37.596Z,59.60
2019-04-03T07:12:04.163Z,59.50
2019-04-03T07:14:30.711Z,59.70
2019-04-03T07:16:57.156Z,60.20
2019-04-03T07:19:25.123Z,60.60
2019-04-03T07:21:54.437Z,60.50
2019-04-03T07:24:19.762Z,60.80
2019-04-03T07:26:46.284Z,60.80
2019-04-03T07:29:16.289Z,60.80
2019-04-03T07:31:41.186Z,57.80
2019-04-03T07:34:07.824Z,61.50
2019-04-03T07:36:34.758Z,59.60
2019-04-03T07:39:01.241Z,58.80
2019-04-03T07:41:27.564Z,58.50
2019-04-03T07:43:53.868Z,58.30
2019-04-03T07:46:20.179Z,58.40
2019-04-03T07:48:46.850Z,58.30
2019-04-03T07:51:13.357Z,58.40
2019-04-03T07:53:40.292Z,58.40
2019-04-03T07:56:06.646Z,58.50
2019-04-03T07:58:33.050Z,58.50
2019-04-03T08:00:59.370Z,58.50
2019-04-03T08:03:25.675Z,58.50
2019-04-03T08:05:52.118Z,58.50
2019-04-03T08:08:20.223Z,58.50
2019-04-03T08:10:46.534Z,58.50
2019-04-03T08:13:15.375Z,58.50
2019-04-03T08:15:42.753Z,58.70
2019-04-03T08:18:09.923Z,58.50
2019-04-03T08:20:36.483Z,58.50
2019-04-03T08:23:05.695Z,58.50
2019-04-03T08:25:34.404Z,59.50
2019-04-03T08:28:00.715Z,59.40
2019-04-03T08:30:27.160Z,59.20
2019-04-03T08:32:53.769Z,59.20
2019-04-03T08:35:23.135Z,59.20
2019-04-03T08:37:48.498Z,59.20
2019-04-03T08:40:19.912Z,59.00
2019-04-03T08:42:45.510Z,58.90
2019-04-03T08:45:12.118Z,58.90
2019-04-03T08:47:38.567Z,58.80
2019-04-03T08:50:07.954Z,58.80
2019-04-03T08:52:34.817Z,58.80
2019-04-03T08:55:04.268Z,58.70
2019-04-03T08:57:30.602Z,58.70
2019-04-03T08:59:59.608Z,58.60
2019-04-03T09:02:25.256Z,58.60
2019-04-03T09:04:51.826Z,58.50
2019-04-03T09:07:18.294Z,58.60
2019-04-03T09:09:44.613Z,58.50
2019-04-03T09:12:10.933Z,58.40
2019-04-03T09:14:37.259Z,58.70
2019-04-03T09:17:04.212Z,59.10
2019-04-03T09:19:30.569Z,59.90
2019-04-03T09:21:57.157Z,60.00
2019-04-03T09:24:23.910Z,60.00
2019-04-03T09:26:50.613Z,60.40
2019-04-03T09:29:17.103Z,60.40
2019-04-03T09:31:43.518Z,60.70
2019-04-03T09:34:09.936Z,60.90
2019-04-03T09:36:36.330Z,60.70
2019-04-03T09:39:06.463Z,60.80
2019-04-03T09:41:32.796Z,60.70
2019-04-03T09:43:59.174Z,60.40
2019-04-03T09:46:25.740Z,60.70
2019-04-03T09:48:52.231Z,60.40
2019-04-03T09:51:21.653Z,60.60
2019-04-03T09:53:46.933Z,61.10
2019-04-03T09:56:13.471Z,60.30
2019-04-03T09:58:39.796Z,60.20
2019-04-03T10:01:06.173Z,60.20
2019-04-03T10:03:33.821Z,60.10
2019-04-03T10:06:00.797Z,60.00
2019-04-03T10:08:27.433Z,59.90
2019-04-03T10:10:53.852Z,59.80
2019-04-03T10:13:20.448Z,59.70
2019-04-03T10:15:47.044Z,59.70
2019-04-03T10:18:13.323Z,59.50
2019-04-03T10:20:40.067Z,59.40
2019-04-03T10:23:06.611Z,59.40
2019-04-03T10:25:35.162Z,59.50
2019-04-03T10:28:02.514Z,59.30
2019-04-03T10:30:28.945Z,59.30
2019-04-03T10:32:58.658Z,59.20
2019-04-03T10:35:24.659Z,59.10
2019-04-03T10:37:51.934Z,59.00
2019-04-03T10:40:18.846Z,59.10
2019-04-03T10:42:45.326Z,59.10
2019-04-03T10:45:11.676Z,59.70
2019-04-03T10:47:42.243Z,59.10
2019-04-03T10:50:06.511Z,59.10
2019-04-03T10:52:32.848Z,58.90
2019-04-03T10:54:59.137Z,58.80
2019-04-03T10:57:29.053Z,58.80
2019-04-03T10:59:55.656Z,58.80
2019-04-03T11:02:21.998Z,58.70
2019-04-03T11:04:48.586Z,58.70
2019-04-03T11:07:15.027Z,58.50
2019-04-03T11:09:41.456Z,58.50
2019-04-03T11:12:10.196Z,58.40
2019-04-03T11:14:36.933Z,58.30
2019-04-03T11:17:04.332Z,58.30
2019-04-03T11:19:31.124Z,58.30
2019-04-03T11:21:57.436Z,58.10
2019-04-03T11:24:23.900Z,58.00
2019-04-03T11:26:51.714Z,57.80
2019-04-03T11:29:19.285Z,57.80
2019-04-03T11:31:45.755Z,57.80
2019-04-03T11:34:12.556Z,57.70
2019-04-03T11:36:39.213Z,57.40
2019-04-03T11:39:13.923Z,57.10
2019-04-03T11:41:36.256Z,56.80
2019-04-03T11:44:02.974Z,56.80
2019-04-03T11:46:29.287Z,57.10
2019-04-03T11:48:55.826Z,57.10
2019-04-03T11:51:22.466Z,57.30
2019-04-03T11:53:49.055Z,57.40
2019-04-03T11:56:18.480Z,57.30
2019-04-03T11:58:45.327Z,57.30
2019-04-03T12:01:15.747Z,57.10
2019-04-03T12:03:42.308Z,57.00
2019-04-03T12:06:09.545Z,57.00
2019-04-03T12:08:35.977Z,57.00
2019-04-03T12:11:05.328Z,56.60
2019-04-03T12:13:30.778Z,57.00
2019-04-03T12:15:58.409Z,57.00
2019-04-03T12:18:25.372Z,56.90
2019-04-03T12:20:51.953Z,56.90
2019-04-03T12:23:18.212Z,56.80
2019-04-03T12:25:46.444Z,56.90
2019-04-03T12:28:13.013Z,56.80
2019-04-03T12:30:40.876Z,56.80
2019-04-03T12:33:07.317Z,56.60
2019-04-03T12:35:43.252Z,56.60
2019-04-03T12:38:13.893Z,56.50
2019-04-03T12:40:40.379Z,56.30
2019-04-03T12:43:06.850Z,56.30
2019-04-03T12:45:33.547Z,56.20
2019-04-03T12:48:00.535Z,56.30
2019-04-03T12:50:27.583Z,56.10
2019-04-03T12:52:54.901Z,56.20
2019-04-03T12:55:22.992Z,56.10
2019-04-03T12:57:49.575Z,56.10
2019-04-03T13:00:16.186Z,56.30
2019-04-03T13:02:42.639Z,55.70
2019-04-03T13:05:09.074Z,55.50
2019-04-03T13:07:36.807Z,55.50
2019-04-03T13:10:07.808Z,55.60
2019-04-03T13:12:34.691Z,55.50
2019-04-03T13:15:02.089Z,55.70
2019-04-03T13:17:29.456Z,55.70
2019-04-03T13:19:55.779Z,55.50
2019-04-03T13:22:22.218Z,55.50
2019-04-03T13:24:49.096Z,55.50
2019-04-03T13:27:15.832Z,55.30
2019-04-03T13:29:42.148Z,55.40
2019-04-03T13:32:08.594Z,55.50
2019-04-03T13:34:35.178Z,55.40
2019-04-03T13:37:02.160Z,55.50
2019-04-03T13:39:29.060Z,55.20
2019-04-03T13:41:58.387Z,49.60
2019-04-03T13:44:26.827Z,45.00
2019-04-03T13:46:53.556Z,47.90
2019-04-03T13:49:20.069Z,48.40
2019-04-03T13:51:46.456Z,48.90
2019-04-03T13:54:13.085Z,48.90
2019-04-03T13:56:42.147Z,49.10
2019-04-03T13:59:07.699Z,49.40
2019-04-03T14:01:34.129Z,49.60
2019-04-03T14:04:01.613Z,49.70
2019-04-03T14:06:28.040Z,50.30
2019-04-03T14:08:54.335Z,50.40
2019-04-03T14:11:20.997Z,50.50
2019-04-03T14:13:47.279Z,51.30
2019-04-03T14:16:21.521Z,50.60
2019-04-03T14:18:42.327Z,51.00
2019-04-03T14:21:09.029Z,51.00
2019-04-03T14:23:35.978Z,51.10
2019-04-03T14:26:06.861Z,51.00
2019-04-03T14:28:33.369Z,51.30
2019-04-03T14:30:59.505Z,51.40
2019-04-03T14:33:26.848Z,51.40
2019-04-03T14:35:54.909Z,51.50
2019-04-03T14:38:21.337Z,51.40
2019-04-03T14:40:48.005Z,51.90
2019-04-03T14:43:15.266Z,51.90
2019-04-03T14:45:43.170Z,51.80
2019-04-03T14:48:10.139Z,51.80
2019-04-03T14:50:38.183Z,51.80
2019-04-03T14:53:04.968Z,51.80
2019-04-03T14:55:31.294Z,51.60
2019-04-03T14:57:57.644Z,51.70
2019-04-03T15:00:28.331Z,51.60
2019-04-03T15:02:54.697Z,51.60
2019-04-03T15:05:20.788Z,51.70
2019-04-03T15:07:49.611Z,52.40
2019-04-03T15:10:15.389Z,51.90
2019-04-03T15:12:45.627Z,51.80
2019-04-03T15:15:11.940Z,43.60
2019-04-03T15:17:38.897Z,47.20
2019-04-03T15:20:07.098Z,48.90
2019-04-03T15:22:33.670Z,48.70
2019-04-03T15:25:00.439Z,49.30
2019-04-03T15:27:28.103Z,49.30
2019-04-03T15:29:55.504Z,49.30
2019-04-03T15:32:22.128Z,49.70
2019-04-03T15:34:50.630Z,50.40
2019-04-03T15:37:17.143Z,50.30
2019-04-03T15:39:43.715Z,50.40
2019-04-03T15:42:10.644Z,50.50
2019-04-03T15:44:37.438Z,50.60
2019-04-03T15:47:03.923Z,50.80
2019-04-03T15:49:30.686Z,50.90
2019-04-03T15:51:57.276Z,52.10
2019-04-03T15:54:25.843Z,51.90
2019-04-03T15:56:52.005Z,51.10
2019-04-03T15:59:18.637Z,51.40
2019-04-03T16:01:45.058Z,51.10
2019-04-03T16:04:11.381Z,44.60
2019-04-03T16:06:38.029Z,39.70
2019-04-03T16:09:06.853Z,41.00
2019-04-03T16:11:33.628Z,42.90
2019-04-03T16:14:00.247Z,43.20
2019-04-03T16:16:28.333Z,42.90
2019-04-03T16:18:55.311Z,43.20
2019-04-03T16:21:23.676Z,43.80
2019-04-03T16:23:50.352Z,44.10
2019-04-03T16:26:16.985Z,44.90
2019-04-03T16:28:44.175Z,45.30
2019-04-03T16:31:10.819Z,45.30
2019-04-03T16:33:37.571Z,45.80
2019-04-03T16:36:04.437Z,45.90
2019-04-03T16:38:31.302Z,46.40
2019-04-03T16:40:58.078Z,46.80
2019-04-03T16:43:24.940Z,46.70
2019-04-03T16:45:51.304Z,47.10
2019-04-03T16:48:18.676Z,47.50
2019-04-03T16:50:45.280Z,49.60
2019-04-03T16:53:11.599Z,48.30
2019-04-03T16:55:37.902Z,48.40
2019-04-03T16:58:04.486Z,48.80
2019-04-03T17:00:31.313Z,48.70
2019-04-03T17:02:58.272Z,48.70
2019-04-03T17:05:24.875Z,48.70
2019-04-03T17:07:53.179Z,48.70
2019-04-03T17:10:19.316Z,48.70
2019-04-03T17:12:47.874Z,48.60
2019-04-03T17:15:14.329Z,48.70
2019-04-03T17:17:41.170Z,48.60
2019-04-03T17:20:08.096Z,48.70
2019-04-03T17:22:34.428Z,48.70
2019-04-03T17:25:01.130Z,48.80
2019-04-03T17:27:29.660Z,48.80
2019-04-03T17:29:56.194Z,48.80
2019-04-03T17:32:22.662Z,48.90
2019-04-03T17:34:48.964Z,49.30
2019-04-03T17:37:18.655Z,49.40
2019-04-03T17:39:43.797Z,49.20
2019-04-03T17:42:10.230Z,49.10
2019-04-03T17:44:38.328Z,49.10
2019-04-03T17:47:04.967Z,48.90
2019-04-03T17:49:31.408Z,48.90
2019-04-03T17:51:58.185Z,49.00
2019-04-03T17:54:24.852Z,48.90
2019-04-03T17:56:51.288Z,48.90
2019-04-03T17:59:18.406Z,48.80
2019-04-03T18:01:45.993Z,48.80
2019-04-03T18:04:12.315Z,48.90
2019-04-03T18:06:39.972Z,48.80
2019-04-03T18:09:07.120Z,48.90
2019-04-03T18:11:33.435Z,49.10
2019-04-03T18:13:59.844Z,49.10
2019-04-03T18:16:27.857Z,49.90
2019-04-03T18:18:54.259Z,49.40
2019-04-03T18:21:20.587Z,49.90
2019-04-03T18:23:46.998Z,49.90
2019-04-03T18:26:13.435Z,50.30
2019-04-03T18:28:40.007Z,51.40
2019-04-03T18:31:06.967Z,53.00
2019-04-03T18:33:34.353Z,51.90
2019-04-03T18:36:02.606Z,52.30
2019-04-03T18:38:31.475Z,52.70
2019-04-03T18:41:06.311Z,53.90
2019-04-03T18:43:32.674Z,55.90
2019-04-03T18:46:02.295Z,54.40
2019-04-03T18:48:33.287Z,55.00
2019-04-03T18:50:59.692Z,54.90
2019-04-03T18:53:26.011Z,54.60
2019-04-03T18:55:52.423Z,54.50
2019-04-03T18:58:18.732Z,55.10
2019-04-03T19:00:45.165Z,54.90
2019-04-03T19:03:11.468Z,54.90
2019-04-03T19:05:38.123Z,54.90
2019-04-03T19:08:13.021Z,55.60
2019-04-03T19:10:33.149Z,55.90
2019-04-03T19:13:01.024Z,55.20
2019-04-03T19:15:27.326Z,54.90
2019-04-03T19:18:00.050Z,55.10
2019-04-03T19:20:21.979Z,55.50
2019-04-03T19:22:48.376Z,55.50
2019-04-03T19:25:14.716Z,55.40
2019-04-03T19:27:41.116Z,55.20
2019-04-03T19:30:07.879Z,55.10
2019-04-03T19:32:34.485Z,54.90
2019-04-03T19:35:00.891Z,55.10
2019-04-03T19:37:27.280Z,55.10
2019-04-03T19:39:53.654Z,54.80
2019-04-03T19:42:19.975Z,54.90
2019-04-03T19:44:47.127Z,54.70
2019-04-03T19:47:14.515Z,54.80
2019-04-03T19:49:41.087Z,54.70
2019-04-03T19:52:07.899Z,54.60
2019-04-03T19:54:34.749Z,54.40
2019-04-03T19:57:01.048Z,54.70
2019-04-03T19:59:29.977Z,54.70
2019-04-03T20:01:55.605Z,54.70
2019-04-03T20:04:22.115Z,54.60
2019-04-03T20:06:48.559Z,54.50
2019-04-03T20:09:17.611Z,54.40
2019-04-03T20:11:43.108Z,54.60
2019-04-03T20:14:11.186Z,54.50
2019-04-03T20:16:37.644Z,54.70
2019-04-03T20:19:04.059Z,54.70
2019-04-03T20:21:30.417Z,54.50
2019-04-03T20:23:56.708Z,54.90
2019-04-03T20:26:23.011Z,54.70
2019-04-03T20:28:49.317Z,54.70
2019-04-03T20:31:15.644Z,54.70
2019-04-03T20:33:42.890Z,54.80
2019-04-03T20:36:09.219Z,54.70
2019-04-03T20:38:35.652Z,54.80
2019-04-03T20:41:03.198Z,54.80
2019-04-03T20:43:30.383Z,54.70
2019-04-03T20:45:56.824Z,54.90
2019-04-03T20:48:23.131Z,54.90
2019-04-03T20:50:49.479Z,55.00
2019-04-03T20:53:17.089Z,55.70
2019-04-03T20:55:44.281Z,54.90
2019-04-03T20:58:10.707Z,55.00
2019-04-03T21:00:37.010Z,55.30
2019-04-03T21:03:03.445Z,55.20
2019-04-03T21:05:29.843Z,54.90
2019-04-03T21:07:56.409Z,55.20
2019-04-03T21:10:22.879Z,54.90
2019-04-03T21:12:49.393Z,55.30
2019-04-03T21:15:15.719Z,55.40
2019-04-03T21:17:42.019Z,55.30
2019-04-03T21:20:08.433Z,55.20
2019-04-03T21:22:34.965Z,55.40
2019-04-03T21:25:05.088Z,55.20
2019-04-03T21:27:29.387Z,55.50
2019-04-03T21:29:58.130Z,55.20
2019-04-03T21:32:23.924Z,55.30
2019-04-03T21:34:50.352Z,55.00
2019-04-03T21:37:16.651Z,55.00
2019-04-03T21:39:43.813Z,55.10
2019-04-03T21:42:11.854Z,55.00
2019-04-03T21:44:38.263Z,55.10
2019-04-03T21:47:04.583Z,55.10
2019-04-03T21:49:30.883Z,55.50
2019-04-03T21:51:57.225Z,55.50
2019-04-03T21:54:24.859Z,55.50
2019-04-03T21:56:51.735Z,55.40
2019-04-03T21:59:18.286Z,55.40
2019-04-03T22:01:45.439Z,55.40
2019-04-03T22:04:12.398Z,55.40
2019-04-03T22:06:38.691Z,55.40
2019-04-03T22:09:08.815Z,56.00
2019-04-03T22:11:35.721Z,55.40
2019-04-03T22:14:02.431Z,55.40
2019-04-03T22:16:28.756Z,55.40
2019-04-03T22:18:55.569Z,55.40
2019-04-03T22:21:22.007Z,56.00
2019-04-03T22:23:48.719Z,55.40
2019-04-03T22:26:15.031Z,55.40
2019-04-03T22:28:41.472Z,55.40
2019-04-03T22:31:07.770Z,55.80
2019-04-03T22:33:34.095Z,55.40
2019-04-03T22:36:01.288Z,55.50
2019-04-03T22:38:28.712Z,55.80
2019-04-03T22:40:55.130Z,55.60
2019-04-03T22:43:21.543Z,55.90
2019-04-03T22:45:50.450Z,55.80
2019-04-03T22:48:15.995Z,55.70
2019-04-03T22:50:42.406Z,55.80
2019-04-03T22:53:10.461Z,55.50
2019-04-03T22:55:36.844Z,55.60
2019-04-03T22:58:03.251Z,56.10
2019-04-03T23:00:29.560Z,56.20
2019-04-03T23:02:55.860Z,56.20
2019-04-03T23:05:22.176Z,56.00
2019-04-03T23:07:51.652Z,56.70
2019-04-03T23:10:16.715Z,55.90
2019-04-03T23:12:43.033Z,55.90
2019-04-03T23:15:09.737Z,56.00
2019-04-03T23:17:36.083Z,55.80
2019-04-03T23:20:03.703Z,55.80
2019-04-03T23:22:30.125Z,55.90
2019-04-03T23:24:59.229Z,56.30
2019-04-03T23:27:24.908Z,56.00
2019-04-03T23:29:51.327Z,55.90
2019-04-03T23:32:17.743Z,56.00
2019-04-03T23:34:44.079Z,55.90
2019-04-03T23:37:10.375Z,56.30
2019-04-03T23:39:37.039Z,56.50
2019-04-03T23:42:06.576Z,56.20
2019-04-03T23:44:32.916Z,56.30
2019-04-03T23:46:59.351Z,56.30
2019-04-03T23:49:25.664Z,56.40
2019-04-03T23:51:52.119Z,56.30
2019-04-03T23:54:18.425Z,56.50
2019-04-03T23:56:44.735Z,56.20
2019-04-03T23:59:13.151Z,56.30
